Time;durP1;ratioP1;P1;durP2;ratioP2;P2;SDS_P1;SDS_P2;PMS_P1;PMS_P2;Temp;Humidity;BMP_temperature;BMP_pressure;BME280_temperature;BME280_humidity;BME280_pressure;Samples;Min_cycle;Max_cycle;Signal;HPM_P1;HPM_P2
2021/10/08 00:00:15;;;;;;;1.70;0.50;;;;;;;;;;4977520;28;20045;-57
2021/10/08 00:02:41;;;;;;;2.85;0.80;;;;;;;;;;4975717;28;20047;-59
2021/10/08 00:05:07;;;;;;;3.67;0.60;;;;;;;;;;4975130;28;20173;-56
2021/10/08 00:07:33;;;;;;;3.67;0.65;;;;;;;;;;4978233;28;20047;-59
2021/10/08 00:09:59;;;;;;;2.08;0.60;;;;;;;;;;4980529;28;20404;-58
2021/10/08 00:12:25;;;;;;;3.33;0.70;;;;;;;;;;4980107;28;20030;-58
2021/10/08 00:14:51;;;;;;;8.68;0.95;;;;;;;;;;4987210;28;20041;-59
2021/10/08 00:17:17;;;;;;;6.20;0.70;;;;;;;;;;4992935;28;20037;-58
2021/10/08 00:19:42;;;;;;;5.40;1.00;;;;;;;;;;5000918;28;20054;-54
2021/10/08 00:22:08;;;;;;;5.75;0.90;;;;;;;;;;5000088;28;20457;-56
2021/10/08 00:24:34;;;;;;;3.88;0.80;;;;;;;;;;4997039;28;20092;-58
2021/10/08 00:27:00;;;;;;;4.22;0.60;;;;;;;;;;4990483;28;20046;-58
2021/10/08 00:29:26;;;;;;;3.20;0.50;;;;;;;;;;4987101;28;20070;-58
2021/10/08 00:31:52;;;;;;;3.83;0.57;;;;;;;;;;4982604;28;20072;-58
2021/10/08 00:34:19;;;;;;;3.95;0.70;;;;;;;;;;4978237;28;20046;-55
2021/10/08 00:36:44;;;;;;;1.33;0.50;;;;;;;;;;4974758;28;20049;-59
2021/10/08 00:39:10;;;;;;;2.50;0.50;;;;;;;;;;4978747;28;20038;-56
2021/10/08 00:41:36;;;;;;;2.42;0.70;;;;;;;;;;4975774;28;20210;-58
2021/10/08 00:44:02;;;;;;;1.25;0.50;;;;;;;;;;4977928;28;20110;-56
2021/10/08 00:46:28;;;;;;;1.02;0.40;;;;;;;;;;4975059;28;20061;-58
2021/10/08 00:48:54;;;;;;;1.95;0.50;;;;;;;;;;4977284;28;20130;-57
2021/10/08 00:51:22;;;;;;;2.45;0.90;;;;;;;;;;4976179;28;20050;-55
2021/10/08 00:53:48;;;;;;;4.32;0.80;;;;;;;;;;4979074;28;20038;-56
2021/10/08 00:56:16;;;;;;;4.35;0.80;;;;;;;;;;4975983;28;20047;-58
2021/10/08 00:58:42;;;;;;;3.00;0.80;;;;;;;;;;4974633;28;20484;-57
2021/10/08 01:01:09;;;;;;;2.30;0.60;;;;;;;;;;4974911;28;20369;-58
2021/10/08 01:03:36;;;;;;;0.68;0.40;;;;;;;;;;4976688;28;20391;-59
2021/10/08 01:06:02;;;;;;;1.45;0.47;;;;;;;;;;4975677;28;20039;-57
2021/10/08 01:08:28;;;;;;;0.88;0.35;;;;;;;;;;4974209;28;20076;-57
2021/10/08 01:11:00;;;;;;;3.00;0.50;;;;;;;;;;4974745;28;20061;-58
2021/10/08 01:13:26;;;;;;;10.10;0.80;;;;;;;;;;4975834;28;20038;-57
2021/10/08 01:15:55;;;;;;;8.10;0.90;;;;;;;;;;4981642;28;20042;-54
2021/10/08 01:18:23;;;;;;;2.03;0.60;;;;;;;;;;4977527;28;20031;-57
2021/10/08 01:20:49;;;;;;;2.15;0.63;;;;;;;;;;4977362;28;20102;-59
2021/10/08 01:23:15;;;;;;;2.38;0.60;;;;;;;;;;4979201;28;20396;-60
2021/10/08 01:25:41;;;;;;;1.25;0.50;;;;;;;;;;4988765;28;20053;-56
2021/10/08 01:28:07;;;;;;;2.08;0.52;;;;;;;;;;4982206;28;20161;-55
2021/10/08 01:30:33;;;;;;;1.77;0.50;;;;;;;;;;4977983;28;20077;-57
2021/10/08 01:32:59;;;;;;;1.65;0.50;;;;;;;;;;4995518;28;20085;-55
2021/10/08 01:35:25;;;;;;;1.17;0.50;;;;;;;;;;4987840;28;20031;-56
2021/10/08 01:37:51;;;;;;;2.13;0.65;;;;;;;;;;4978897;28;20447;-52
2021/10/08 01:40:17;;;;;;;3.17;0.50;;;;;;;;;;4978626;28;20031;-60
2021/10/08 01:42:43;;;;;;;2.17;0.50;;;;;;;;;;4990276;28;20052;-58
2021/10/08 01:45:10;;;;;;;1.55;0.40;;;;;;;;;;5000585;28;20050;-56
2021/10/08 01:47:36;;;;;;;1.15;0.40;;;;;;;;;;5000925;28;20046;-57
2021/10/08 01:50:02;;;;;;;1.58;0.50;;;;;;;;;;5002865;28;20072;-52
2021/10/08 01:52:29;;;;;;;1.77;0.60;;;;;;;;;;5008015;28;20066;-55
2021/10/08 01:54:54;;;;;;;4.85;0.70;;;;;;;;;;5009309;28;20073;-59
2021/10/08 01:57:21;;;;;;;4.15;1.15;;;;;;;;;;5005467;28;20101;-60
2021/10/08 01:59:46;;;;;;;1.38;0.50;;;;;;;;;;4990197;28;20044;-59
2021/10/08 02:02:12;;;;;;;2.42;0.68;;;;;;;;;;4985022;28;20101;-59
2021/10/08 02:04:40;;;;;;;1.05;0.43;;;;;;;;;;4985885;28;20046;-56
2021/10/08 02:07:25;;;;;;;1.98;0.60;;;;;;;;;;5012013;28;20576;-58
2021/10/08 02:09:51;;;;;;;2.35;0.65;;;;;;;;;;5001488;28;20096;-56
2021/10/08 02:12:17;;;;;;;4.40;0.75;;;;;;;;;;5009340;28;20049;-58
2021/10/08 02:14:43;;;;;;;16.05;1.23;;;;;;;;;;5008789;28;20041;-57
2021/10/08 02:17:09;;;;;;;2.65;0.40;;;;;;;;;;5011669;28;20476;-58
2021/10/08 02:19:35;;;;;;;1.55;0.60;;;;;;;;;;5009200;28;20037;-61
2021/10/08 02:22:02;;;;;;;1.08;0.50;;;;;;;;;;5012091;28;20037;-57
2021/10/08 02:24:29;;;;;;;1.95;0.55;;;;;;;;;;4997003;28;20041;-54
2021/10/08 02:26:55;;;;;;;9.55;0.73;;;;;;;;;;5007218;28;20259;-56
2021/10/08 02:29:21;;;;;;;7.05;0.70;;;;;;;;;;5009024;28;20197;-57
2021/10/08 02:31:47;;;;;;;1.60;0.60;;;;;;;;;;5009672;28;20141;-57
2021/10/08 02:34:13;;;;;;;4.88;0.50;;;;;;;;;;5006282;28;20036;-55
2021/10/08 02:36:39;;;;;;;1.65;0.52;;;;;;;;;;5006221;28;20042;-54
2021/10/08 02:39:05;;;;;;;1.30;0.50;;;;;;;;;;5009209;28;20081;-59
2021/10/08 02:41:31;;;;;;;1.77;0.60;;;;;;;;;;5007408;28;20044;-56
2021/10/08 02:43:56;;;;;;;1.80;0.60;;;;;;;;;;5008783;28;20048;-58
2021/10/08 02:46:22;;;;;;;1.60;0.50;;;;;;;;;;4990931;28;20460;-64
2021/10/08 02:48:48;;;;;;;0.73;0.40;;;;;;;;;;4991344;28;20046;-54
2021/10/08 02:51:14;;;;;;;1.23;0.50;;;;;;;;;;4992556;28;20913;-58
2021/10/08 02:53:40;;;;;;;2.50;0.60;;;;;;;;;;4991340;28;20069;-52
2021/10/08 02:56:06;;;;;;;1.27;0.50;;;;;;;;;;4994073;28;20128;-57
2021/10/08 02:58:32;;;;;;;2.67;0.70;;;;;;;;;;4989122;28;20130;-57
2021/10/08 03:00:58;;;;;;;3.20;0.65;;;;;;;;;;4987446;28;20499;-55
2021/10/08 03:03:23;;;;;;;4.18;0.60;;;;;;;;;;4970737;28;20165;-53
2021/10/08 03:05:49;;;;;;;1.70;0.57;;;;;;;;;;4971406;28;20035;-57
2021/10/08 03:08:15;;;;;;;2.38;0.70;;;;;;;;;;4971204;28;20077;-57
2021/10/08 03:10:41;;;;;;;2.00;0.60;;;;;;;;;;4969575;28;20138;-57
2021/10/08 03:13:07;;;;;;;1.60;0.50;;;;;;;;;;4972750;28;20050;-57
2021/10/08 03:15:33;;;;;;;3.20;0.90;;;;;;;;;;4980731;28;20042;-55
2021/10/08 03:17:59;;;;;;;4.43;0.60;;;;;;;;;;4982909;28;20058;-58
2021/10/08 03:20:25;;;;;;;3.25;0.93;;;;;;;;;;4976679;28;20042;-55
2021/10/08 03:22:50;;;;;;;3.22;0.60;;;;;;;;;;4977679;28;20368;-55
2021/10/08 03:25:16;;;;;;;1.67;0.70;;;;;;;;;;4977277;28;20057;-56
2021/10/08 03:27:43;;;;;;;1.98;0.73;;;;;;;;;;4993360;28;20038;-57
2021/10/08 03:30:10;;;;;;;1.83;0.50;;;;;;;;;;4984567;28;20100;-57
2021/10/08 03:32:36;;;;;;;7.50;0.70;;;;;;;;;;4977361;28;20151;-56
2021/10/08 03:35:02;;;;;;;7.32;0.55;;;;;;;;;;4973618;28;20179;-57
2021/10/08 03:37:37;;;;;;;1.45;0.50;;;;;;;;;;4987947;28;20543;-55
2021/10/08 03:40:03;;;;;;;5.22;0.70;;;;;;;;;;4992434;28;20056;-54
2021/10/08 03:42:29;;;;;;;2.63;0.60;;;;;;;;;;4975046;28;20537;-54
2021/10/08 03:45:03;;;;;;;2.17;0.60;;;;;;;;;;4975616;28;20081;-58
2021/10/08 03:47:41;;;;;;;1.95;0.50;;;;;;;;;;4972456;28;20149;-55
2021/10/08 03:50:09;;;;;;;1.73;0.60;;;;;;;;;;4976106;28;20057;-58
2021/10/08 03:52:35;;;;;;;1.75;0.50;;;;;;;;;;4979274;28;20102;-57
2021/10/08 03:55:01;;;;;;;7.97;0.63;;;;;;;;;;4984636;28;20129;-55
2021/10/08 03:57:27;;;;;;;1.35;0.50;;;;;;;;;;4974961;28;20140;-56
2021/10/08 03:59:53;;;;;;;1.55;0.55;;;;;;;;;;4977744;28;20121;-57
2021/10/08 04:02:19;;;;;;;1.63;0.57;;;;;;;;;;4976518;28;20041;-58
2021/10/08 04:04:45;;;;;;;2.08;0.50;;;;;;;;;;4982941;28;20157;-58
2021/10/08 04:07:11;;;;;;;4.30;0.63;;;;;;;;;;4979340;28;20065;-58
2021/10/08 04:09:37;;;;;;;2.85;0.60;;;;;;;;;;4991511;28;20145;-56
2021/10/08 04:12:03;;;;;;;2.15;0.60;;;;;;;;;;4983631;28;20645;-58
2021/10/08 04:14:32;;;;;;;1.63;0.60;;;;;;;;;;4979723;28;20038;-56
2021/10/08 04:16:58;;;;;;;2.63;0.50;;;;;;;;;;4977448;28;20320;-58
2021/10/08 04:19:23;;;;;;;1.98;0.55;;;;;;;;;;4978353;28;20045;-56
2021/10/08 04:21:49;;;;;;;1.35;0.50;;;;;;;;;;4976888;28;20396;-55
2021/10/08 04:24:15;;;;;;;1.27;0.50;;;;;;;;;;4973846;28;20042;-59
2021/10/08 04:26:41;;;;;;;1.75;0.50;;;;;;;;;;4972985;28;20038;-56
2021/10/08 04:29:07;;;;;;;1.52;0.50;;;;;;;;;;4975942;28;20385;-55
2021/10/08 04:31:33;;;;;;;1.23;0.50;;;;;;;;;;4975426;28;20050;-56
2021/10/08 04:33:59;;;;;;;1.45;0.50;;;;;;;;;;4990448;28;20050;-55
2021/10/08 04:36:25;;;;;;;1.58;0.57;;;;;;;;;;4973241;28;20399;-58
2021/10/08 04:38:51;;;;;;;2.60;0.80;;;;;;;;;;4976179;28;20045;-55
2021/10/08 04:41:18;;;;;;;1.50;0.60;;;;;;;;;;4973564;28;20050;-58
2021/10/08 04:43:44;;;;;;;1.90;0.68;;;;;;;;;;4986063;28;20546;-58
2021/10/08 04:46:10;;;;;;;1.80;0.52;;;;;;;;;;4992672;28;20041;-53
2021/10/08 04:48:36;;;;;;;1.55;0.50;;;;;;;;;;4993028;28;21061;-56
2021/10/08 04:51:02;;;;;;;1.88;0.60;;;;;;;;;;4996602;28;20076;-59
2021/10/08 04:53:28;;;;;;;1.77;0.50;;;;;;;;;;4996717;28;20044;-58
2021/10/08 04:55:54;;;;;;;2.70;0.60;;;;;;;;;;4992817;28;20045;-57
2021/10/08 04:58:20;;;;;;;1.23;0.50;;;;;;;;;;4974394;28;20035;-58
2021/10/08 05:00:46;;;;;;;6.30;0.55;;;;;;;;;;4980129;28;20632;-57
2021/10/08 05:03:13;;;;;;;1.95;0.60;;;;;;;;;;4977515;28;20469;-55
2021/10/08 05:05:39;;;;;;;1.65;0.60;;;;;;;;;;4977547;28;20038;-57
2021/10/08 05:08:05;;;;;;;2.42;0.60;;;;;;;;;;4971847;28;20061;-57
2021/10/08 05:10:32;;;;;;;2.75;0.60;;;;;;;;;;4972565;28;20057;-56
2021/10/08 05:12:58;;;;;;;1.67;0.50;;;;;;;;;;4973362;28;20034;-56
2021/10/08 05:15:24;;;;;;;0.85;0.40;;;;;;;;;;4972336;28;20057;-56
2021/10/08 05:17:49;;;;;;;3.50;0.60;;;;;;;;;;4981864;28;20149;-54
2021/10/08 05:20:15;;;;;;;3.03;0.50;;;;;;;;;;4972817;28;20526;-57
2021/10/08 05:22:41;;;;;;;2.08;0.60;;;;;;;;;;4972442;28;20101;-55
2021/10/08 05:25:07;;;;;;;1.77;0.52;;;;;;;;;;4973493;28;21763;-57
2021/10/08 05:27:33;;;;;;;1.75;0.50;;;;;;;;;;4972668;28;20051;-57
2021/10/08 05:29:59;;;;;;;5.05;0.63;;;;;;;;;;4974282;28;20034;-55
2021/10/08 05:32:25;;;;;;;3.53;0.70;;;;;;;;;;4973737;28;20412;-55
2021/10/08 05:34:51;;;;;;;7.25;0.68;;;;;;;;;;4974260;28;20042;-57
2021/10/08 05:37:17;;;;;;;3.17;0.70;;;;;;;;;;4989207;28;20047;-57
2021/10/08 05:39:44;;;;;;;2.10;0.60;;;;;;;;;;4994313;28;20062;-53
2021/10/08 05:42:10;;;;;;;2.55;0.77;;;;;;;;;;4994979;28;20183;-54
2021/10/08 05:44:36;;;;;;;6.53;0.80;;;;;;;;;;4992126;28;20041;-55
2021/10/08 05:47:01;;;;;;;1.67;0.60;;;;;;;;;;4993063;28;20252;-56
2021/10/08 05:49:28;;;;;;;1.83;0.60;;;;;;;;;;4994711;28;20060;-55
2021/10/08 05:51:54;;;;;;;1.70;0.57;;;;;;;;;;4981735;28;20165;-57
2021/10/08 05:54:20;;;;;;;1.33;0.50;;;;;;;;;;4973531;28;20725;-55
2021/10/08 05:56:46;;;;;;;4.72;0.80;;;;;;;;;;4974233;28;20073;-54
2021/10/08 05:59:11;;;;;;;1.83;0.60;;;;;;;;;;4973965;28;20065;-57
2021/10/08 06:01:37;;;;;;;2.33;0.82;;;;;;;;;;4973630;28;20039;-56
2021/10/08 06:04:06;;;;;;;1.80;0.50;;;;;;;;;;4972792;28;20042;-56
2021/10/08 06:06:32;;;;;;;6.43;0.70;;;;;;;;;;4969764;28;20185;-57
2021/10/08 06:08:58;;;;;;;5.22;0.60;;;;;;;;;;4972584;28;20625;-58
2021/10/08 06:11:24;;;;;;;1.20;0.40;;;;;;;;;;4972954;28;20043;-57
2021/10/08 06:13:50;;;;;;;2.20;0.60;;;;;;;;;;4970338;28;20039;-55
2021/10/08 06:16:16;;;;;;;1.83;0.57;;;;;;;;;;4972009;28;20133;-56
2021/10/08 06:18:42;;;;;;;3.63;0.60;;;;;;;;;;4979858;28;20510;-56
2021/10/08 06:21:07;;;;;;;1.90;0.50;;;;;;;;;;4968756;28;20050;-57
2021/10/08 06:23:33;;;;;;;1.80;0.70;;;;;;;;;;4971998;28;20129;-57
2021/10/08 06:25:59;;;;;;;1.58;0.60;;;;;;;;;;4988646;28;20499;-58
2021/10/08 06:28:25;;;;;;;2.22;0.60;;;;;;;;;;4984491;28;20054;-58
2021/10/08 06:30:51;;;;;;;2.17;0.60;;;;;;;;;;4981466;28;20050;-57
2021/10/08 06:33:17;;;;;;;2.78;0.65;;;;;;;;;;4973005;28;20129;-58
2021/10/08 06:35:43;;;;;;;4.18;0.80;;;;;;;;;;4972107;28;20192;-56
2021/10/08 06:38:10;;;;;;;2.78;0.77;;;;;;;;;;4972899;28;20519;-58
2021/10/08 06:40:37;;;;;;;1.98;0.70;;;;;;;;;;4972233;28;20046;-57
2021/10/08 06:43:03;;;;;;;1.27;0.50;;;;;;;;;;4982475;28;20054;-58
2021/10/08 06:45:29;;;;;;;8.18;0.70;;;;;;;;;;4974409;28;20134;-56
2021/10/08 06:47:55;;;;;;;2.42;0.70;;;;;;;;;;4975654;28;20129;-58
2021/10/08 06:50:20;;;;;;;2.33;0.68;;;;;;;;;;4964451;28;20061;-54
2021/10/08 06:52:46;;;;;;;8.23;0.90;;;;;;;;;;4991482;28;20076;-57
2021/10/08 06:55:13;;;;;;;1.98;0.60;;;;;;;;;;4978322;28;20054;-58
2021/10/08 06:57:38;;;;;;;1.90;0.70;;;;;;;;;;4976008;28;20050;-58
2021/10/08 07:00:06;;;;;;;5.18;0.90;;;;;;;;;;4972364;28;20472;-57
2021/10/08 07:02:32;;;;;;;2.03;0.70;;;;;;;;;;4972581;28;20047;-57
2021/10/08 07:04:58;;;;;;;1.75;0.55;;;;;;;;;;4972541;28;20054;-57
2021/10/08 07:07:24;;;;;;;2.60;0.60;;;;;;;;;;4972204;28;20521;-56
2021/10/08 07:09:50;;;;;;;2.35;0.60;;;;;;;;;;4981726;28;20124;-54
2021/10/08 07:12:16;;;;;;;3.00;0.60;;;;;;;;;;4978688;28;20117;-58
2021/10/08 07:14:42;;;;;;;2.15;0.70;;;;;;;;;;4980626;28;20044;-55
2021/10/08 07:17:09;;;;;;;3.50;0.70;;;;;;;;;;4975211;28;20802;-57
2021/10/08 07:19:34;;;;;;;2.75;0.65;;;;;;;;;;4974707;28;20044;-54
2021/10/08 07:22:01;;;;;;;3.35;0.75;;;;;;;;;;4975580;28;20483;-55
2021/10/08 07:24:26;;;;;;;2.53;0.73;;;;;;;;;;4979062;28;20542;-56
2021/10/08 07:26:52;;;;;;;4.60;0.82;;;;;;;;;;4987674;28;20042;-55
2021/10/08 07:29:18;;;;;;;2.63;0.70;;;;;;;;;;4977344;28;20407;-57
2021/10/08 07:31:44;;;;;;;7.30;0.93;;;;;;;;;;4978309;28;20110;-54
2021/10/08 07:34:10;;;;;;;1.92;0.85;;;;;;;;;;4992341;28;20468;-57
2021/10/08 07:36:36;;;;;;;2.63;0.50;;;;;;;;;;4983359;28;20035;-57
2021/10/08 07:39:02;;;;;;;2.72;0.68;;;;;;;;;;4975226;28;20595;-56
2021/10/08 07:41:28;;;;;;;2.03;0.60;;;;;;;;;;4972738;28;20146;-56
2021/10/08 07:43:54;;;;;;;4.30;0.88;;;;;;;;;;4987849;28;20082;-55
2021/10/08 07:46:20;;;;;;;2.17;0.70;;;;;;;;;;4971514;28;20274;-55
2021/10/08 07:48:45;;;;;;;3.17;0.73;;;;;;;;;;4973283;28;20054;-55
2021/10/08 07:51:11;;;;;;;8.07;0.73;;;;;;;;;;4972150;28;20146;-56
2021/10/08 07:53:37;;;;;;;6.97;0.65;;;;;;;;;;4971388;28;20035;-56
2021/10/08 07:56:03;;;;;;;1.92;0.57;;;;;;;;;;4972402;28;20049;-56
2021/10/08 07:58:30;;;;;;;1.67;0.60;;;;;;;;;;4970067;28;20047;-57
2021/10/08 08:00:59;;;;;;;1.73;0.65;;;;;;;;;;4973874;28;20073;-58
2021/10/08 08:03:26;;;;;;;2.10;0.68;;;;;;;;;;4974596;28;20045;-56
2021/10/08 08:05:52;;;;;;;1.73;0.50;;;;;;;;;;4976046;28;20447;-58
2021/10/08 08:08:18;;;;;;;3.75;0.63;;;;;;;;;;4979206;28;20055;-59
2021/10/08 08:10:44;;;;;;;2.30;0.70;;;;;;;;;;4983392;28;20082;-57
2021/10/08 08:13:11;;;;;;;2.67;0.85;;;;;;;;;;4977020;28;20039;-57
2021/10/08 08:15:37;;;;;;;1.77;0.68;;;;;;;;;;4985028;28;20070;-58
2021/10/08 08:18:03;;;;;;;1.92;0.68;;;;;;;;;;4975051;28;20074;-57
2021/10/08 08:20:29;;;;;;;2.17;0.70;;;;;;;;;;4975772;28;20073;-54
2021/10/08 08:22:55;;;;;;;2.05;0.57;;;;;;;;;;4977994;28;20051;-55
2021/10/08 08:25:21;;;;;;;5.18;0.77;;;;;;;;;;4977960;28;20100;-55
2021/10/08 08:27:47;;;;;;;6.45;0.77;;;;;;;;;;4976880;28;20054;-55
2021/10/08 08:30:13;;;;;;;5.20;0.70;;;;;;;;;;4980007;28;20045;-56
2021/10/08 08:32:39;;;;;;;4.45;0.90;;;;;;;;;;4978573;28;20372;-55
2021/10/08 08:35:05;;;;;;;2.60;0.50;;;;;;;;;;4979929;28;20122;-53
2021/10/08 08:37:31;;;;;;;2.08;0.60;;;;;;;;;;4982909;28;20047;-57
2021/10/08 08:40:00;;;;;;;3.42;0.75;;;;;;;;;;4981562;28;20092;-52
2021/10/08 08:42:26;;;;;;;1.65;0.50;;;;;;;;;;4983113;28;20614;-53
2021/10/08 08:44:51;;;;;;;1.35;0.40;;;;;;;;;;4988997;28;20089;-55
2021/10/08 08:47:18;;;;;;;0.65;0.30;;;;;;;;;;4996414;28;20042;-51
2021/10/08 08:49:44;;;;;;;1.38;0.40;;;;;;;;;;4987475;28;20101;-60
2021/10/08 08:52:10;;;;;;;1.20;0.43;;;;;;;;;;4983928;28;20395;-56
2021/10/08 08:54:36;;;;;;;1.25;0.40;;;;;;;;;;4992738;28;20090;-56
2021/10/08 08:57:12;;;;;;;0.30;0.30;;;;;;;;;;4996645;28;20363;-57
2021/10/08 08:59:57;;;;;;;1.65;0.60;;;;;;;;;;4997791;28;20141;-59
2021/10/08 09:02:25;;;;;;;1.52;0.50;;;;;;;;;;4978025;28;20385;-53
2021/10/08 09:04:50;;;;;;;0.77;0.40;;;;;;;;;;4978033;28;20022;-55
2021/10/08 09:07:17;;;;;;;1.02;0.40;;;;;;;;;;4980000;28;20049;-57
2021/10/08 09:09:43;;;;;;;0.75;0.35;;;;;;;;;;4992582;28;20139;-57
2021/10/08 09:12:10;;;;;;;2.28;0.57;;;;;;;;;;4984650;28;20051;-58
2021/10/08 09:14:36;;;;;;;1.42;0.43;;;;;;;;;;4991233;28;20458;-57
2021/10/08 09:17:08;;;;;;;1.58;0.40;;;;;;;;;;4977293;28;20039;-58
2021/10/08 09:19:55;;;;;;;1.52;0.55;;;;;;;;;;4977370;28;20089;-57
2021/10/08 09:22:24;;;;;;;1.25;0.45;;;;;;;;;;4975079;28;20502;-55
2021/10/08 09:24:50;;;;;;;4.80;0.60;;;;;;;;;;4976312;28;20484;-56
2021/10/08 09:27:19;;;;;;;2.00;0.60;;;;;;;;;;4973376;28;20209;-52
2021/10/08 09:29:49;;;;;;;1.80;0.40;;;;;;;;;;4992936;28;20038;-54
2021/10/08 09:32:16;;;;;;;4.03;0.63;;;;;;;;;;4987846;28;20409;-58
2021/10/08 09:34:42;;;;;;;0.90;0.40;;;;;;;;;;4976912;28;20562;-57
2021/10/08 09:37:10;;;;;;;1.73;0.50;;;;;;;;;;4977915;28;20042;-57
2021/10/08 09:39:37;;;;;;;1.80;0.50;;;;;;;;;;4976575;28;20046;-56
2021/10/08 09:42:04;;;;;;;1.65;0.60;;;;;;;;;;4978202;28;20069;-55
2021/10/08 09:44:32;;;;;;;1.52;0.43;;;;;;;;;;4989320;28;20073;-57
2021/10/08 09:47:08;;;;;;;0.68;0.32;;;;;;;;;;4973775;28;20083;-56
2021/10/08 09:49:34;;;;;;;1.35;0.57;;;;;;;;;;4977244;28;20351;-57
2021/10/08 09:52:17;;;;;;;1.15;0.40;;;;;;;;;;4976236;28;20145;-55
2021/10/08 09:54:47;;;;;;;4.47;0.73;;;;;;;;;;4996557;28;20070;-55
2021/10/08 09:57:13;;;;;;;0.95;0.40;;;;;;;;;;4997850;28;20050;-58
2021/10/08 09:59:39;;;;;;;0.70;0.40;;;;;;;;;;5000576;28;20037;-57
2021/10/08 10:02:05;;;;;;;2.10;0.50;;;;;;;;;;5009969;28;20088;-59
2021/10/08 10:04:48;;;;;;;1.27;0.45;;;;;;;;;;5009252;28;20109;-54
2021/10/08 10:07:14;;;;;;;1.73;0.52;;;;;;;;;;5011023;28;20033;-53
2021/10/08 10:09:40;;;;;;;1.33;0.40;;;;;;;;;;5003051;28;20103;-58
2021/10/08 10:12:07;;;;;;;2.17;0.60;;;;;;;;;;4981474;28;20093;-55
2021/10/08 10:14:34;;;;;;;2.53;0.68;;;;;;;;;;4980013;28;20061;-54
2021/10/08 10:17:01;;;;;;;2.88;0.75;;;;;;;;;;4974764;28;20413;-56
2021/10/08 10:19:29;;;;;;;7.68;0.80;;;;;;;;;;4977191;28;20046;-58
2021/10/08 10:21:55;;;;;;;3.13;0.70;;;;;;;;;;4989382;28;21115;-57
2021/10/08 10:24:22;;;;;;;0.98;0.40;;;;;;;;;;4972595;28;20149;-56
2021/10/08 10:26:48;;;;;;;1.98;0.63;;;;;;;;;;4982677;28;20042;-56
2021/10/08 10:29:14;;;;;;;1.38;0.50;;;;;;;;;;4973222;28;20051;-55
2021/10/08 10:31:40;;;;;;;1.65;0.60;;;;;;;;;;4985723;28;20057;-55
2021/10/08 10:34:06;;;;;;;1.98;0.60;;;;;;;;;;4973097;28;20042;-54
2021/10/08 10:36:37;;;;;;;1.40;0.50;;;;;;;;;;4971643;28;20046;-57
2021/10/08 10:39:16;;;;;;;1.73;0.45;;;;;;;;;;4972612;28;20035;-57
2021/10/08 10:41:42;;;;;;;4.25;0.70;;;;;;;;;;4973363;28;20048;-58
2021/10/08 10:44:19;;;;;;;0.88;0.40;;;;;;;;;;4988569;28;20201;-56
2021/10/08 10:47:07;;;;;;;1.60;0.60;;;;;;;;;;4993588;28;20391;-58
2021/10/08 10:49:42;;;;;;;5.38;0.65;;;;;;;;;;4994658;28;20046;-53
2021/10/08 10:52:15;;;;;;;1.98;0.65;;;;;;;;;;4993312;28;20052;-54
2021/10/08 10:54:42;;;;;;;1.27;0.45;;;;;;;;;;4996013;28;20045;-53
2021/10/08 10:57:12;;;;;;;4.97;0.80;;;;;;;;;;4997478;28;20049;-53
2021/10/08 10:59:41;;;;;;;5.93;0.73;;;;;;;;;;4978356;28;20459;-56
2021/10/08 11:02:15;;;;;;;3.13;0.70;;;;;;;;;;4976467;28;20146;-54
2021/10/08 11:04:42;;;;;;;1.17;0.40;;;;;;;;;;4977939;28;20145;-51
2021/10/08 11:07:09;;;;;;;1.50;0.50;;;;;;;;;;4975621;28;20059;-52
2021/10/08 11:09:35;;;;;;;2.92;0.70;;;;;;;;;;4974150;28;20050;-51
2021/10/08 11:12:19;;;;;;;2.72;0.73;;;;;;;;;;4974033;28;20145;-52
2021/10/08 11:14:45;;;;;;;2.85;0.80;;;;;;;;;;4986047;28;20039;-52
2021/10/08 11:17:30;;;;;;;1.10;0.47;;;;;;;;;;4976861;28;20057;-55
2021/10/08 11:19:56;;;;;;;1.17;0.50;;;;;;;;;;5011920;28;20065;-57
2021/10/08 11:22:41;;;;;;;0.82;0.40;;;;;;;;;;4976830;28;20192;-52
2021/10/08 11:25:07;;;;;;;1.33;0.50;;;;;;;;;;4980747;28;20052;-57
2021/10/08 11:27:33;;;;;;;1.90;0.52;;;;;;;;;;4992888;28;20585;-52
2021/10/08 11:30:03;;;;;;;3.72;0.82;;;;;;;;;;4974808;28;20050;-52
2021/10/08 11:32:31;;;;;;;1.88;0.43;;;;;;;;;;4972329;28;20053;-52
2021/10/08 11:34:57;;;;;;;2.25;0.70;;;;;;;;;;4980008;28;20050;-55
2021/10/08 11:37:23;;;;;;;2.97;0.82;;;;;;;;;;4979292;28;20043;-55
2021/10/08 11:39:50;;;;;;;1.88;0.50;;;;;;;;;;4979659;28;20046;-55
2021/10/08 11:42:17;;;;;;;1.95;0.57;;;;;;;;;;4981768;28;20074;-58
2021/10/08 11:47:54;;;;;;;1.45;0.57;;;;;;;;;;4996585;28;20153;-57
2021/10/08 11:53:03;;;;;;;2.85;0.60;;;;;;;;;;4976700;28;20886;-57
2021/10/08 11:55:32;;;;;;;1.95;0.57;;;;;;;;;;4976236;28;20082;-56
2021/10/08 11:58:00;;;;;;;1.75;0.57;;;;;;;;;;4980170;28;20046;-56
2021/10/08 12:00:35;;;;;;;6.10;1.00;;;;;;;;;;4976143;28;20129;-56
2021/10/08 12:03:05;;;;;;;2.63;0.88;;;;;;;;;;4976403;28;20176;-57
2021/10/08 12:05:46;;;;;;;6.22;0.98;;;;;;;;;;4990369;28;20068;-57
2021/10/08 12:08:15;;;;;;;1.77;0.63;;;;;;;;;;4977092;28;20061;-55
2021/10/08 12:10:51;;;;;;;2.60;0.70;;;;;;;;;;4974703;28;20051;-56
2021/10/08 12:13:18;;;;;;;1.90;0.70;;;;;;;;;;4976569;28;20042;-53
2021/10/08 12:15:43;;;;;;;1.48;0.80;;;;;;;;;;5008388;28;20095;-54
2021/10/08 12:18:13;;;;;;;3.45;0.80;;;;;;;;;;4994982;28;20038;-55
2021/10/08 12:20:39;;;;;;;2.28;0.82;;;;;;;;;;4974307;28;20061;-55
2021/10/08 12:23:24;;;;;;;16.38;1.35;;;;;;;;;;4980798;28;20038;-51
2021/10/08 12:25:52;;;;;;;3.25;1.13;;;;;;;;;;4990617;28;20447;-53
2021/10/08 12:28:19;;;;;;;5.43;1.20;;;;;;;;;;4982212;28;20514;-56
2021/10/08 12:30:51;;;;;;;3.08;1.10;;;;;;;;;;4978474;28;20050;-58
2021/10/08 12:33:43;;;;;;;3.58;1.30;;;;;;;;;;4978278;28;21735;-56
2021/10/08 12:36:20;;;;;;;3.22;0.88;;;;;;;;;;4993021;28;20056;-57
2021/10/08 12:39:05;;;;;;;6.93;1.13;;;;;;;;;;4995025;28;20721;-58
2021/10/08 12:41:50;;;;;;;4.15;1.23;;;;;;;;;;4991903;28;20050;-58
2021/10/08 12:44:18;;;;;;;2.63;0.85;;;;;;;;;;4992574;28;20400;-53
2021/10/08 12:46:54;;;;;;;8.73;1.10;;;;;;;;;;4993903;28;20041;-56
2021/10/08 12:49:21;;;;;;;3.60;1.20;;;;;;;;;;4976100;28;20034;-58
2021/10/08 12:51:52;;;;;;;2.97;1.00;;;;;;;;;;4996150;28;20427;-51
2021/10/08 12:54:20;;;;;;;2.70;0.95;;;;;;;;;;4997528;28;20038;-57
2021/10/08 12:56:46;;;;;;;5.30;1.10;;;;;;;;;;4986221;28;20042;-55
2021/10/08 12:59:13;;;;;;;3.75;1.00;;;;;;;;;;4981767;28;20558;-54
2021/10/08 13:01:59;;;;;;;8.55;0.93;;;;;;;;;;4979067;28;20042;-57
2021/10/08 13:04:25;;;;;;;11.63;1.25;;;;;;;;;;4978769;28;20057;-56
2021/10/08 13:07:10;;;;;;;7.68;1.25;;;;;;;;;;4975600;28;20038;-55
2021/10/08 13:09:36;;;;;;;9.02;4.07;;;;;;;;;;4977825;28;20054;-58
2021/10/08 13:12:02;;;;;;;6.22;1.35;;;;;;;;;;4977980;28;20047;-57
2021/10/08 13:14:29;;;;;;;7.47;1.17;;;;;;;;;;4958486;28;20038;-56
2021/10/08 13:16:55;;;;;;;6.13;1.40;;;;;;;;;;4975826;28;20039;-57
2021/10/08 13:19:32;;;;;;;5.07;1.63;;;;;;;;;;4973919;28;20146;-57
2021/10/08 13:21:58;;;;;;;3.38;1.25;;;;;;;;;;4974510;28;20053;-57
2021/10/08 13:24:24;;;;;;;4.47;1.20;;;;;;;;;;4975956;28;20109;-57
2021/10/08 13:26:50;;;;;;;9.50;1.30;;;;;;;;;;4974329;28;20046;-55
2021/10/08 13:29:16;;;;;;;12.30;1.50;;;;;;;;;;4976209;28;20039;-57
2021/10/08 13:31:42;;;;;;;6.43;1.40;;;;;;;;;;4975460;28;20547;-56
2021/10/08 13:34:08;;;;;;;4.15;1.20;;;;;;;;;;4976446;28;20093;-52
2021/10/08 13:36:34;;;;;;;3.92;1.35;;;;;;;;;;4973657;28;20046;-57
2021/10/08 13:39:00;;;;;;;5.53;1.10;;;;;;;;;;4978199;28;20763;-57
2021/10/08 13:41:25;;;;;;;13.70;4.78;;;;;;;;;;4993818;28;20032;-57
2021/10/08 13:43:51;;;;;;;6.95;2.88;;;;;;;;;;4990315;28;20046;-58
2021/10/08 13:46:17;;;;;;;3.42;1.00;;;;;;;;;;4991500;28;20431;-54
2021/10/08 13:48:43;;;;;;;7.15;1.52;;;;;;;;;;4990418;28;20050;-57
2021/10/08 13:51:09;;;;;;;3.50;1.10;;;;;;;;;;4991552;28;20614;-57
2021/10/08 13:53:35;;;;;;;6.75;1.70;;;;;;;;;;4993254;28;20048;-57
2021/10/08 13:56:00;;;;;;;4.35;1.17;;;;;;;;;;4998724;28;20043;-57
2021/10/08 13:58:26;;;;;;;10.50;1.80;;;;;;;;;;4975568;28;20909;-55
2021/10/08 14:00:53;;;;;;;4.53;1.08;;;;;;;;;;4973784;28;20066;-54
2021/10/08 14:08:38;;;;;;;6.25;1.58;;;;;;;;;;4969867;28;20065;-57
2021/10/08 14:11:06;;;;;;;7.80;1.52;;;;;;;;;;4971284;28;20058;-54
2021/10/08 14:13:32;;;;;;;12.25;1.88;;;;;;;;;;4970712;28;20117;-56
2021/10/08 14:15:58;;;;;;;4.72;1.38;;;;;;;;;;4973106;28;20046;-58
2021/10/08 14:18:25;;;;;;;6.88;1.92;;;;;;;;;;4971679;28;20076;-57
2021/10/08 14:20:51;;;;;;;7.15;1.67;;;;;;;;;;4975298;28;20120;-58
2021/10/08 14:23:17;;;;;;;17.42;1.83;;;;;;;;;;4975301;28;20165;-58
2021/10/08 14:25:43;;;;;;;14.98;1.48;;;;;;;;;;4993020;28;20098;-55
2021/10/08 14:28:09;;;;;;;15.32;1.90;;;;;;;;;;4995145;28;20124;-58
2021/10/08 14:30:35;;;;;;;15.18;1.60;;;;;;;;;;4992805;28;20148;-57
2021/10/08 14:33:01;;;;;;;4.72;1.60;;;;;;;;;;4991899;28;20053;-58
2021/10/08 14:35:27;;;;;;;5.18;1.50;;;;;;;;;;4983247;28;20030;-58
2021/10/08 14:37:54;;;;;;;5.40;1.67;;;;;;;;;;4987793;28;20046;-56
2021/10/08 14:40:20;;;;;;;4.95;2.03;;;;;;;;;;4975593;28;20051;-56
2021/10/08 14:42:47;;;;;;;8.13;1.85;;;;;;;;;;4972298;28;20915;-58
2021/10/08 14:45:16;;;;;;;9.18;1.17;;;;;;;;;;4974951;28;20038;-55
2021/10/08 14:47:42;;;;;;;4.18;1.33;;;;;;;;;;4973307;28;20146;-57
2021/10/08 14:50:08;;;;;;;4.45;1.05;;;;;;;;;;4974272;28;20589;-57
2021/10/08 14:52:34;;;;;;;3.50;1.15;;;;;;;;;;4981283;28;20141;-57
2021/10/08 14:55:11;;;;;;;4.90;1.20;;;;;;;;;;4977001;28;20067;-57